Time;durP1;ratioP1;P1;durP2;ratioP2;P2;SDS_P1;SDS_P2;PMS_P1;PMS_P2;Temp;Humidity;BMP_temperature;BMP_pressure;BME280_temperature;BME280_humidity;BME280_pressure;Samples;Min_cycle;Max_cycle;Signal;HPM_P1;HPM_P2
2023/08/24 00:01:23;;;;;;;2.25;1.40;;;;;;;;;;6275871;23;20168;-96
2023/08/24 00:03:54;;;;;;;2.08;1.20;;;;;;;;;;6275576;22;20177;-96
2023/08/24 00:06:30;;;;;;;1.85;1.58;;;;;;;;;;6275659;23;20152;-96
2023/08/24 00:09:05;;;;;;;1.60;1.27;;;;;;;;;;6250584;23;20172;-95
2023/08/24 00:11:41;;;;;;;9.05;3.22;;;;;;;;;;6275763;23;20149;-96
2023/08/24 00:14:12;;;;;;;1.50;1.40;;;;;;;;;;6275809;22;20148;-96
2023/08/24 00:16:42;;;;;;;1.45;1.35;;;;;;;;;;6275673;23;20149;-96
2023/08/24 00:19:20;;;;;;;1.67;1.58;;;;;;;;;;6250006;23;20150;-96
2023/08/24 00:21:53;;;;;;;1.30;1.20;;;;;;;;;;6275758;23;20145;-96
2023/08/24 00:24:35;;;;;;;1.60;1.50;;;;;;;;;;6275792;22;20188;-96
2023/08/24 00:27:14;;;;;;;1.50;1.40;;;;;;;;;;6275688;23;20168;-96
2023/08/24 00:29:51;;;;;;;1.63;1.50;;;;;;;;;;6275715;23;20168;-95
2023/08/24 00:32:28;;;;;;;1.73;1.50;;;;;;;;;;6226306;23;20145;-96
2023/08/24 00:35:05;;;;;;;1.77;1.40;;;;;;;;;;6275669;22;20148;-96
2023/08/24 00:37:42;;;;;;;1.17;1.10;;;;;;;;;;6275745;23;20192;-96
2023/08/24 00:40:13;;;;;;;1.90;1.55;;;;;;;;;;6275615;23;20156;-95
2023/08/24 00:42:49;;;;;;;1.33;1.30;;;;;;;;;;6249163;23;20153;-96
2023/08/24 00:45:22;;;;;;;1.60;1.50;;;;;;;;;;6275299;23;20160;-96
2023/08/24 00:47:51;;;;;;;2.10;1.80;;;;;;;;;;6275626;23;20152;-95
2023/08/24 00:50:25;;;;;;;1.60;1.50;;;;;;;;;;6275463;23;20152;-95
2023/08/24 00:53:02;;;;;;;1.63;1.52;;;;;;;;;;6275506;22;20153;-96
2023/08/24 00:55:34;;;;;;;1.67;1.58;;;;;;;;;;6275546;23;20146;-96
2023/08/24 00:58:19;;;;;;;1.27;1.27;;;;;;;;;;6275655;23;20150;-96
2023/08/24 01:00:56;;;;;;;1.70;1.60;;;;;;;;;;6275402;23;20212;-96
2023/08/24 01:03:32;;;;;;;1.60;1.50;;;;;;;;;;6275270;22;20145;-96
2023/08/24 01:06:07;;;;;;;1.75;1.52;;;;;;;;;;6275483;23;20149;-95
2023/08/24 01:08:38;;;;;;;2.53;1.77;;;;;;;;;;6275373;23;20145;-96
2023/08/24 01:11:19;;;;;;;1.80;1.70;;;;;;;;;;6225633;23;20145;-96
2023/08/24 01:14:06;;;;;;;1.80;1.70;;;;;;;;;;6249518;23;20145;-96
2023/08/24 01:16:41;;;;;;;1.70;1.60;;;;;;;;;;6275498;23;20160;-96
2023/08/24 01:19:25;;;;;;;3.22;1.67;;;;;;;;;;6276444;23;20166;-96
2023/08/24 01:21:53;;;;;;;1.77;1.67;;;;;;;;;;6277380;23;20193;-96
2023/08/24 01:24:40;;;;;;;2.00;1.80;;;;;;;;;;6277009;22;20173;-96
2023/08/24 01:27:17;;;;;;;2.05;1.75;;;;;;;;;;6277116;23;20161;-96
2023/08/24 01:29:49;;;;;;;3.40;1.80;;;;;;;;;;6277097;23;20168;-95
2023/08/24 01:32:23;;;;;;;1.85;1.75;;;;;;;;;;6277054;23;20195;-96
2023/08/24 01:35:05;;;;;;;2.25;1.85;;;;;;;;;;6277027;22;20151;-95
2023/08/24 01:37:41;;;;;;;1.98;1.88;;;;;;;;;;6277242;23;20157;-96
2023/08/24 01:40:22;;;;;;;1.88;1.70;;;;;;;;;;6277021;23;20145;-96
2023/08/24 01:42:56;;;;;;;2.00;1.90;;;;;;;;;;6276760;22;20145;-96
2023/08/24 01:45:32;;;;;;;1.90;1.80;;;;;;;;;;6276727;23;20157;-96
2023/08/24 01:48:07;;;;;;;1.80;1.67;;;;;;;;;;6251514;23;20154;-96
2023/08/24 01:50:42;;;;;;;1.98;1.77;;;;;;;;;;6277041;23;20430;-96
2023/08/24 01:53:14;;;;;;;1.73;1.63;;;;;;;;;;6276645;22;20179;-96
2023/08/24 01:55:43;;;;;;;2.10;1.60;;;;;;;;;;6276847;23;20212;-96
2023/08/24 01:58:15;;;;;;;2.78;2.00;;;;;;;;;;6251365;23;20216;-96
2023/08/24 02:00:49;;;;;;;1.77;1.67;;;;;;;;;;6276680;23;20165;-96
2023/08/24 02:03:20;;;;;;;1.80;1.70;;;;;;;;;;6276591;22;20146;-96
2023/08/24 02:05:49;;;;;;;1.70;1.60;;;;;;;;;;6276460;23;20157;-95
2023/08/24 02:08:18;;;;;;;1.60;1.50;;;;;;;;;;6276744;23;20156;-95
2023/08/24 02:10:47;;;;;;;2.03;1.60;;;;;;;;;;6276580;23;20150;-95
2023/08/24 02:13:17;;;;;;;1.98;1.80;;;;;;;;;;6276014;22;20168;-95
2023/08/24 02:15:47;;;;;;;2.88;1.95;;;;;;;;;;6276439;23;20142;-96
2023/08/24 02:18:17;;;;;;;2.33;2.22;;;;;;;;;;6276318;23;20145;-96
2023/08/24 02:20:45;;;;;;;1.75;1.65;;;;;;;;;;6276037;23;20145;-95
2023/08/24 02:23:13;;;;;;;1.73;1.63;;;;;;;;;;6276065;22;20151;-94
2023/08/24 02:25:44;;;;;;;1.63;1.52;;;;;;;;;;6276028;23;20161;-95
2023/08/24 02:28:12;;;;;;;1.80;1.70;;;;;;;;;;6276007;23;20149;-96
2023/08/24 02:30:42;;;;;;;1.85;1.75;;;;;;;;;;6275989;23;20150;-96
2023/08/24 02:33:10;;;;;;;1.30;1.30;;;;;;;;;;6276085;23;21733;-96
2023/08/24 02:35:43;;;;;;;1.75;1.50;;;;;;;;;;6276070;23;20145;-96
2023/08/24 02:38:12;;;;;;;1.35;1.33;;;;;;;;;;6276247;23;20175;-95
2023/08/24 02:40:43;;;;;;;1.27;1.27;;;;;;;;;;6275986;23;20145;-95
2023/08/24 02:43:13;;;;;;;1.30;1.30;;;;;;;;;;6275797;22;20154;-95
2023/08/24 02:45:46;;;;;;;1.60;1.50;;;;;;;;;;6276335;23;20179;-95
2023/08/24 02:48:14;;;;;;;1.50;1.40;;;;;;;;;;6276040;23;20149;-96
2023/08/24 02:50:42;;;;;;;1.40;1.35;;;;;;;;;;6276039;23;20161;-96
2023/08/24 02:53:11;;;;;;;1.75;1.50;;;;;;;;;;6274908;22;20149;-96
2023/08/24 02:55:41;;;;;;;1.45;1.35;;;;;;;;;;6276080;23;20164;-96
2023/08/24 02:58:10;;;;;;;1.50;1.40;;;;;;;;;;6275852;23;20145;-96
2023/08/24 03:00:45;;;;;;;1.80;1.70;;;;;;;;;;6275828;23;20168;-95
2023/08/24 03:03:13;;;;;;;1.60;1.50;;;;;;;;;;6275552;22;20152;-95
2023/08/24 03:05:42;;;;;;;1.60;1.50;;;;;;;;;;6273762;23;20157;-94
2023/08/24 03:08:10;;;;;;;2.58;1.67;;;;;;;;;;6271976;23;20221;-95
2023/08/24 03:10:39;;;;;;;1.48;1.48;;;;;;;;;;6272169;23;20149;-95
2023/08/24 03:13:07;;;;;;;1.77;1.67;;;;;;;;;;6272992;22;20183;-96
2023/08/24 03:15:37;;;;;;;2.22;2.03;;;;;;;;;;6271044;23;20146;-95
2023/08/24 03:18:11;;;;;;;2.03;1.92;;;;;;;;;;6271034;23;20149;-96
2023/08/24 03:20:39;;;;;;;1.88;1.77;;;;;;;;;;6271090;23;20150;-94
2023/08/24 03:23:08;;;;;;;2.33;1.80;;;;;;;;;;6270942;22;20213;-95
2023/08/24 03:25:39;;;;;;;1.88;1.67;;;;;;;;;;6271315;23;20161;-96
2023/08/24 03:28:08;;;;;;;1.80;1.70;;;;;;;;;;6271099;23;20157;-95
2023/08/24 03:30:37;;;;;;;1.60;1.50;;;;;;;;;;6270960;23;20498;-95
2023/08/24 03:33:07;;;;;;;1.40;1.30;;;;;;;;;;6270363;22;20176;-95
2023/08/24 03:35:35;;;;;;;1.60;1.50;;;;;;;;;;6270584;23;20145;-96
2023/08/24 03:38:04;;;;;;;1.77;1.67;;;;;;;;;;6270452;23;20175;-95
2023/08/24 03:40:32;;;;;;;1.50;1.40;;;;;;;;;;6270300;23;20149;-94
2023/08/24 03:43:03;;;;;;;1.73;1.63;;;;;;;;;;6270440;22;20160;-95
2023/08/24 03:45:31;;;;;;;1.60;1.50;;;;;;;;;;6270374;23;20161;-95
2023/08/24 03:48:00;;;;;;;1.40;1.30;;;;;;;;;;6270417;23;20149;-95
2023/08/24 03:50:33;;;;;;;2.10;1.70;;;;;;;;;;6271199;23;20150;-96
2023/08/24 03:53:02;;;;;;;1.75;1.65;;;;;;;;;;6271697;22;20150;-94
2023/08/24 03:55:33;;;;;;;2.20;1.70;;;;;;;;;;6271193;23;20145;-96
2023/08/24 03:58:01;;;;;;;1.90;1.80;;;;;;;;;;6271615;23;20165;-95
2023/08/24 04:00:33;;;;;;;1.77;1.67;;;;;;;;;;6271383;23;20149;-95
2023/08/24 04:03:05;;;;;;;2.80;2.60;;;;;;;;;;6271479;22;20149;-96
2023/08/24 04:05:35;;;;;;;1.95;1.85;;;;;;;;;;6271215;23;20161;-95
2023/08/24 04:08:04;;;;;;;2.72;2.40;;;;;;;;;;6271565;23;20160;-96
2023/08/24 04:10:32;;;;;;;3.45;2.10;;;;;;;;;;6271005;23;20149;-95
2023/08/24 04:13:01;;;;;;;1.83;1.73;;;;;;;;;;6270848;22;20149;-96
2023/08/24 04:15:29;;;;;;;2.17;2.08;;;;;;;;;;6270917;23;20157;-95
2023/08/24 04:17:58;;;;;;;2.03;1.92;;;;;;;;;;6270906;23;20207;-95
2023/08/24 04:20:26;;;;;;;1.80;1.70;;;;;;;;;;6270910;23;20157;-95
2023/08/24 04:22:57;;;;;;;1.95;1.85;;;;;;;;;;6270972;22;20160;-95
2023/08/24 04:25:25;;;;;;;2.38;2.20;;;;;;;;;;6271356;23;20146;-96
2023/08/24 04:27:54;;;;;;;2.03;1.92;;;;;;;;;;6271062;23;20197;-96
2023/08/24 04:30:22;;;;;;;1.70;1.60;;;;;;;;;;6270035;23;20176;-96
2023/08/24 04:32:52;;;;;;;1.98;1.73;;;;;;;;;;6269587;23;20356;-95
2023/08/24 04:35:20;;;;;;;1.65;1.55;;;;;;;;;;6270195;23;20149;-95
2023/08/24 04:37:48;;;;;;;1.80;1.70;;;;;;;;;;6270393;23;20161;-95
2023/08/24 04:40:27;;;;;;;1.48;1.38;;;;;;;;;;6270749;23;20149;-95
2023/08/24 04:42:56;;;;;;;1.30;1.30;;;;;;;;;;6273107;22;20149;-96
2023/08/24 04:45:24;;;;;;;1.50;1.40;;;;;;;;;;6273230;23;20168;-96
2023/08/24 04:47:53;;;;;;;1.25;1.25;;;;;;;;;;6272388;23;20149;-96
2023/08/24 04:50:22;;;;;;;1.60;1.50;;;;;;;;;;6272862;23;20149;-96
2023/08/24 04:52:50;;;;;;;1.60;1.50;;;;;;;;;;6273725;23;20149;-95
2023/08/24 04:55:20;;;;;;;1.60;1.50;;;;;;;;;;6274386;23;20217;-96
2023/08/24 04:57:48;;;;;;;1.63;1.52;;;;;;;;;;6273240;23;20149;-95
2023/08/24 05:00:17;;;;;;;1.60;1.50;;;;;;;;;;6273295;23;20150;-95
2023/08/24 05:02:46;;;;;;;1.60;1.50;;;;;;;;;;6273382;23;20205;-96
2023/08/24 05:05:14;;;;;;;2.40;2.20;;;;;;;;;;6273509;22;20146;-96
2023/08/24 05:07:42;;;;;;;2.28;2.13;;;;;;;;;;6276692;23;20164;-95
2023/08/24 05:10:11;;;;;;;1.83;1.73;;;;;;;;;;6275996;23;20160;-96
2023/08/24 05:12:41;;;;;;;2.00;1.90;;;;;;;;;;6276583;23;20248;-96
2023/08/24 05:15:10;;;;;;;1.60;1.50;;;;;;;;;;6276826;22;20175;-95
2023/08/24 05:17:38;;;;;;;2.72;2.53;;;;;;;;;;6276913;23;20163;-94
2023/08/24 05:20:10;;;;;;;1.90;1.80;;;;;;;;;;6276661;23;20149;-95
2023/08/24 05:22:38;;;;;;;1.98;1.88;;;;;;;;;;6276633;23;20197;-96
2023/08/24 05:25:07;;;;;;;2.25;1.83;;;;;;;;;;6276745;22;20145;-96
2023/08/24 05:27:36;;;;;;;1.95;1.85;;;;;;;;;;6276617;23;20173;-96
2023/08/24 05:30:07;;;;;;;3.53;1.90;;;;;;;;;;6276788;23;20145;-96
2023/08/24 05:32:38;;;;;;;2.40;2.20;;;;;;;;;;6276809;23;20188;-95
2023/08/24 05:35:08;;;;;;;2.47;2.28;;;;;;;;;;6251749;23;20200;-96
2023/08/24 05:37:36;;;;;;;2.30;2.20;;;;;;;;;;6276651;23;20156;-95
2023/08/24 05:40:05;;;;;;;2.40;2.05;;;;;;;;;;6276574;23;20152;-96
2023/08/24 05:42:33;;;;;;;7.88;3.85;;;;;;;;;;6276156;23;20150;-95
2023/08/24 05:45:01;;;;;;;2.60;2.40;;;;;;;;;;6276238;22;20167;-96
2023/08/24 05:47:31;;;;;;;4.10;2.75;;;;;;;;;;6276399;23;20161;-95
2023/08/24 05:49:59;;;;;;;1.90;1.77;;;;;;;;;;6276462;23;20145;-96
2023/08/24 05:52:28;;;;;;;2.35;2.25;;;;;;;;;;6276410;23;20168;-95
2023/08/24 05:54:57;;;;;;;2.40;2.30;;;;;;;;;;6276198;22;20145;-96
2023/08/24 05:57:25;;;;;;;3.25;2.42;;;;;;;;;;6276687;23;20141;-96
2023/08/24 05:59:53;;;;;;;2.67;2.47;;;;;;;;;;6276544;23;20168;-96
2023/08/24 06:02:22;;;;;;;2.15;2.05;;;;;;;;;;6276519;23;20157;-96
2023/08/24 06:04:51;;;;;;;1.85;1.75;;;;;;;;;;6276005;22;20153;-94
2023/08/24 06:07:21;;;;;;;2.10;2.00;;;;;;;;;;6276356;23;20157;-95
2023/08/24 06:09:49;;;;;;;2.38;2.20;;;;;;;;;;6276339;23;20168;-95
2023/08/24 06:12:17;;;;;;;2.92;2.63;;;;;;;;;;6276109;23;20145;-95
2023/08/24 06:14:45;;;;;;;2.25;2.10;;;;;;;;;;6276061;22;20153;-96
2023/08/24 06:17:16;;;;;;;2.33;2.03;;;;;;;;;;6276487;23;20191;-95
2023/08/24 06:19:45;;;;;;;1.88;1.77;;;;;;;;;;6276354;23;20193;-95
2023/08/24 06:22:14;;;;;;;2.53;2.33;;;;;;;;;;6275957;23;20168;-96
2023/08/24 06:24:42;;;;;;;2.50;2.30;;;;;;;;;;6276308;22;20176;-94
2023/08/24 06:27:10;;;;;;;2.05;1.95;;;;;;;;;;6276051;23;20171;-95
2023/08/24 06:29:39;;;;;;;2.38;2.28;;;;;;;;;;6275965;23;20156;-96
2023/08/24 06:32:09;;;;;;;2.60;2.40;;;;;;;;;;6276108;23;20146;-95
2023/08/24 06:34:37;;;;;;;2.47;2.20;;;;;;;;;;6275992;22;20151;-96
2023/08/24 06:37:05;;;;;;;2.53;2.38;;;;;;;;;;6276129;23;20150;-96
2023/08/24 06:39:36;;;;;;;2.45;2.25;;;;;;;;;;6275998;23;20145;-95
2023/08/24 06:42:04;;;;;;;1.92;1.83;;;;;;;;;;6276060;23;20149;-96
2023/08/24 06:44:32;;;;;;;2.15;2.05;;;;;;;;;;6275748;22;20157;-96
2023/08/24 06:47:00;;;;;;;1.90;1.80;;;;;;;;;;6275625;23;20172;-95
2023/08/24 06:49:29;;;;;;;2.22;2.13;;;;;;;;;;6275932;23;20156;-96
2023/08/24 06:51:57;;;;;;;1.63;1.52;;;;;;;;;;6275881;23;20141;-95
2023/08/24 06:54:26;;;;;;;2.80;2.65;;;;;;;;;;6275621;22;20146;-96
2023/08/24 06:56:56;;;;;;;2.50;2.30;;;;;;;;;;6275732;23;20146;-95
2023/08/24 06:59:24;;;;;;;2.40;2.17;;;;;;;;;;6275993;23;20149;-95
2023/08/24 07:01:52;;;;;;;2.28;2.17;;;;;;;;;;6275698;23;20253;-96
2023/08/24 07:04:20;;;;;;;2.38;2.17;;;;;;;;;;6276004;22;20145;-96
2023/08/24 07:06:48;;;;;;;1.95;1.85;;;;;;;;;;6275699;23;20150;-95
2023/08/24 07:09:18;;;;;;;2.95;2.55;;;;;;;;;;6275562;23;20149;-95
2023/08/24 07:11:46;;;;;;;1.80;1.70;;;;;;;;;;6275704;23;20161;-95
2023/08/24 07:14:16;;;;;;;2.75;2.55;;;;;;;;;;6275567;22;20176;-96
2023/08/24 07:16:44;;;;;;;1.95;1.85;;;;;;;;;;6275264;23;20146;-96
2023/08/24 07:19:13;;;;;;;2.70;2.50;;;;;;;;;;6275570;23;20155;-96
2023/08/24 07:21:41;;;;;;;2.53;2.30;;;;;;;;;;6275617;23;20156;-96
2023/08/24 07:24:10;;;;;;;2.40;2.25;;;;;;;;;;6275931;22;20149;-95
2023/08/24 07:26:45;;;;;;;3.20;3.00;;;;;;;;;;6275965;23;20149;-96
2023/08/24 07:29:20;;;;;;;2.92;2.60;;;;;;;;;;6272621;23;20180;-96
2023/08/24 07:31:50;;;;;;;2.67;2.45;;;;;;;;;;6276223;23;20151;-96
2023/08/24 07:34:23;;;;;;;2.22;2.13;;;;;;;;;;6275914;22;20145;-95
2023/08/24 07:36:56;;;;;;;2.90;2.70;;;;;;;;;;6276074;23;20156;-96
2023/08/24 07:39:25;;;;;;;3.55;3.25;;;;;;;;;;6250418;23;20145;-96
2023/08/24 07:41:55;;;;;;;3.83;3.45;;;;;;;;;;6275036;23;20153;-96
2023/08/24 07:44:27;;;;;;;4.40;4.00;;;;;;;;;;6225240;23;20161;-95
2023/08/24 07:46:59;;;;;;;3.17;2.78;;;;;;;;;;6275938;23;20168;-95
2023/08/24 07:49:32;;;;;;;2.83;2.47;;;;;;;;;;6275766;23;20157;-96
2023/08/24 07:52:04;;;;;;;4.85;3.63;;;;;;;;;;6276143;23;20145;-96
2023/08/24 07:54:35;;;;;;;2.60;2.40;;;;;;;;;;6275648;22;20163;-96
2023/08/24 07:57:04;;;;;;;2.67;2.47;;;;;;;;;;6275798;23;20222;-95
2023/08/24 07:59:39;;;;;;;2.58;2.38;;;;;;;;;;6275690;23;20142;-95
2023/08/24 08:02:11;;;;;;;2.95;2.70;;;;;;;;;;6275790;23;20160;-96
2023/08/24 08:07:31;;;;;;;4.05;3.55;;;;;;;;;;6274131;23;20168;-96
2023/08/24 08:09:59;;;;;;;3.88;3.22;;;;;;;;;;6275722;23;20163;-95
2023/08/24 08:12:29;;;;;;;4.47;3.30;;;;;;;;;;6275699;23;20205;-95
2023/08/24 08:15:05;;;;;;;3.22;3.03;;;;;;;;;;6275722;22;20146;-96
2023/08/24 08:17:34;;;;;;;2.75;2.55;;;;;;;;;;6275573;23;20145;-96
2023/08/24 08:20:08;;;;;;;3.20;3.00;;;;;;;;;;6275591;23;20175;-95
2023/08/24 08:22:38;;;;;;;3.00;2.80;;;;;;;;;;6275332;23;20182;-96
2023/08/24 08:25:08;;;;;;;2.70;2.50;;;;;;;;;;6275093;22;20149;-96
2023/08/24 08:27:36;;;;;;;2.67;2.47;;;;;;;;;;6274984;23;20172;-95
2023/08/24 08:30:09;;;;;;;2.65;2.45;;;;;;;;;;6275325;23;20164;-95
2023/08/24 08:32:37;;;;;;;2.70;2.47;;;;;;;;;;6275174;23;20205;-96
2023/08/24 08:35:07;;;;;;;3.75;2.47;;;;;;;;;;6275019;22;20145;-96
2023/08/24 08:37:38;;;;;;;9.50;3.42;;;;;;;;;;6275525;23;20197;-96
2023/08/24 08:40:10;;;;;;;2.00;1.85;;;;;;;;;;6275204;23;20209;-96
2023/08/24 08:42:39;;;;;;;2.72;2.33;;;;;;;;;;6275426;23;20149;-95
2023/08/24 08:45:14;;;;;;;5.82;3.47;;;;;;;;;;6274936;22;20153;-96
2023/08/24 08:47:42;;;;;;;3.58;2.60;;;;;;;;;;6248320;23;20149;-96
2023/08/24 08:50:12;;;;;;;3.13;2.83;;;;;;;;;;6274688;23;20172;-94
2023/08/24 08:52:40;;;;;;;2.58;2.38;;;;;;;;;;6274881;23;20149;-96
2023/08/24 08:55:10;;;;;;;2.45;2.25;;;;;;;;;;6274734;22;20145;-96
2023/08/24 08:57:41;;;;;;;2.05;1.95;;;;;;;;;;6274779;23;20160;-95
2023/08/24 09:00:14;;;;;;;2.28;1.80;;;;;;;;;;6275035;23;20141;-96
2023/08/24 09:02:46;;;;;;;3.97;2.95;;;;;;;;;;6274777;23;20152;-95
2023/08/24 09:05:14;;;;;;;3.30;3.00;;;;;;;;;;6274945;22;20147;-95
2023/08/24 09:07:46;;;;;;;2.75;2.55;;;;;;;;;;6275229;23;20160;-95
2023/08/24 09:10:15;;;;;;;3.03;2.75;;;;;;;;;;6274852;23;20185;-95
2023/08/24 09:12:43;;;;;;;4.00;2.72;;;;;;;;;;6274540;23;20149;-95
2023/08/24 09:15:14;;;;;;;3.22;2.97;;;;;;;;;;6275512;22;20146;-96
2023/08/24 09:20:30;;;;;;;3.40;3.10;;;;;;;;;;6263725;23;20173;-95
2023/08/24 09:22:59;;;;;;;3.05;2.85;;;;;;;;;;6275018;22;20160;-96
2023/08/24 09:25:28;;;;;;;2.70;2.50;;;;;;;;;;6275099;23;20193;-96
2023/08/24 09:27:59;;;;;;;4.50;3.78;;;;;;;;;;6275049;23;20165;-96
2023/08/24 09:30:34;;;;;;;2.85;2.60;;;;;;;;;;6275073;23;20195;-96
2023/08/24 09:33:14;;;;;;;3.58;2.47;;;;;;;;;;6275076;22;20197;-95
2023/08/24 09:35:42;;;;;;;2.55;2.35;;;;;;;;;;6275124;23;20153;-96
2023/08/24 09:38:21;;;;;;;2.72;2.53;;;;;;;;;;6275333;23;20160;-96
2023/08/24 09:40:52;;;;;;;2.35;2.17;;;;;;;;;;6276561;23;20179;-96
2023/08/24 09:43:23;;;;;;;2.88;2.10;;;;;;;;;;6276616;22;20204;-96
2023/08/24 09:45:53;;;;;;;1.83;1.73;;;;;;;;;;6276665;23;20157;-95
2023/08/24 09:48:22;;;;;;;2.00;1.90;;;;;;;;;;6276638;23;20149;-96
2023/08/24 09:50:52;;;;;;;3.53;2.75;;;;;;;;;;6276624;23;20165;-95
2023/08/24 09:53:29;;;;;;;2.42;2.28;;;;;;;;;;6276476;22;20149;-96
2023/08/24 09:56:08;;;;;;;1.60;1.50;;;;;;;;;;6276655;23;20160;-96
2023/08/24 10:02:22;;;;;;;3.75;2.55;;;;;;;;;;6252365;23;20156;-96
2023/08/24 10:07:42;;;;;;;1.70;1.60;;;;;;;;;;6275185;23;20176;-95
2023/08/24 10:13:21;;;;;;;1.80;1.70;;;;;;;;;;6276695;22;20177;-95
2023/08/24 10:15:51;;;;;;;2.45;1.65;;;;;;;;;;6274015;23;20157;-96
2023/08/24 10:18:41;;;;;;;2.20;2.00;;;;;;;;;;6276724;23;20171;-96
2023/08/24 10:24:20;;;;;;;2.80;2.60;;;;;;;;;;6276494;22;20145;-95
